sensor_id;sensor_type;location;lat;lon;timestamp;P1;durP1;ratioP1;P2;durP2;ratioP2
10458;SDS011;5277;48.722;8.736;2023-04-27T00:01:27;6.68;;;4.70;;
10458;SDS011;5277;48.722;8.736;2023-04-27T00:03:53;7.33;;;4.70;;
10458;SDS011;5277;48.722;8.736;2023-04-27T00:06:19;9.13;;;4.60;;
10458;SDS011;5277;48.722;8.736;2023-04-27T00:08:45;9.00;;;5.57;;
10458;SDS011;5277;48.722;8.736;2023-04-27T00:11:10;8.20;;;4.63;;
10458;SDS011;5277;48.722;8.736;2023-04-27T00:13:36;9.15;;;5.68;;
10458;SDS011;5277;48.722;8.736;2023-04-27T00:16:02;9.07;;;4.63;;
10458;SDS011;5277;48.722;8.736;2023-04-27T00:18:28;6.50;;;4.87;;
10458;SDS011;5277;48.722;8.736;2023-04-27T00:20:55;9.13;;;5.07;;
10458;SDS011;5277;48.722;8.736;2023-04-27T00:23:21;8.20;;;5.03;;
10458;SDS011;5277;48.722;8.736;2023-04-27T00:25:46;5.73;;;4.33;;
10458;SDS011;5277;48.722;8.736;2023-04-27T00:28:12;6.93;;;4.30;;
10458;SDS011;5277;48.722;8.736;2023-04-27T00:30:37;6.40;;;4.80;;
10458;SDS011;5277;48.722;8.736;2023-04-27T00:33:03;12.00;;;4.80;;
10458;SDS011;5277;48.722;8.736;2023-04-27T00:35:28;6.77;;;4.43;;
10458;SDS011;5277;48.722;8.736;2023-04-27T00:37:56;9.37;;;4.83;;
10458;SDS011;5277;48.722;8.736;2023-04-27T00:40:22;7.63;;;4.43;;
10458;SDS011;5277;48.722;8.736;2023-04-27T00:42:48;6.30;;;4.70;;
10458;SDS011;5277;48.722;8.736;2023-04-27T00:45:13;6.10;;;4.70;;
10458;SDS011;5277;48.722;8.736;2023-04-27T00:47:39;8.77;;;4.27;;
10458;SDS011;5277;48.722;8.736;2023-04-27T00:50:06;7.23;;;4.03;;
10458;SDS011;5277;48.722;8.736;2023-04-27T00:52:34;7.90;;;5.20;;
10458;SDS011;5277;48.722;8.736;2023-04-27T00:55:01;7.57;;;4.60;;
10458;SDS011;5277;48.722;8.736;2023-04-27T00:57:28;8.07;;;4.10;;
10458;SDS011;5277;48.722;8.736;2023-04-27T00:59:54;6.37;;;4.90;;
10458;SDS011;5277;48.722;8.736;2023-04-27T01:02:20;9.23;;;4.60;;
10458;SDS011;5277;48.722;8.736;2023-04-27T01:04:46;8.67;;;5.47;;
10458;SDS011;5277;48.722;8.736;2023-04-27T01:07:14;7.90;;;5.17;;
10458;SDS011;5277;48.722;8.736;2023-04-27T01:09:40;10.37;;;4.83;;
10458;SDS011;5277;48.722;8.736;2023-04-27T01:12:06;11.60;;;4.63;;
10458;SDS011;5277;48.722;8.736;2023-04-27T01:14:32;8.10;;;4.10;;
10458;SDS011;5277;48.722;8.736;2023-04-27T01:16:58;7.70;;;4.33;;
10458;SDS011;5277;48.722;8.736;2023-04-27T01:19:23;8.67;;;4.20;;
10458;SDS011;5277;48.722;8.736;2023-04-27T01:21:49;5.77;;;4.20;;
10458;SDS011;5277;48.722;8.736;2023-04-27T01:24:14;6.60;;;4.50;;
10458;SDS011;5277;48.722;8.736;2023-04-27T01:26:40;8.40;;;3.90;;
10458;SDS011;5277;48.722;8.736;2023-04-27T01:29:06;6.80;;;3.80;;
10458;SDS011;5277;48.722;8.736;2023-04-27T01:31:31;8.07;;;4.13;;
10458;SDS011;5277;48.722;8.736;2023-04-27T01:33:57;6.60;;;4.00;;
10458;SDS011;5277;48.722;8.736;2023-04-27T01:36:23;6.17;;;3.90;;
10458;SDS011;5277;48.722;8.736;2023-04-27T01:38:48;8.83;;;4.50;;
10458;SDS011;5277;48.722;8.736;2023-04-27T01:41:15;7.53;;;4.50;;
10458;SDS011;5277;48.722;8.736;2023-04-27T01:43:40;5.63;;;4.07;;
10458;SDS011;5277;48.722;8.736;2023-04-27T01:46:08;4.70;;;3.53;;
10458;SDS011;5277;48.722;8.736;2023-04-27T01:48:35;6.73;;;3.97;;
10458;SDS011;5277;48.722;8.736;2023-04-27T01:51:01;6.13;;;4.00;;
10458;SDS011;5277;48.722;8.736;2023-04-27T01:53:27;5.13;;;3.90;;
10458;SDS011;5277;48.722;8.736;2023-04-27T01:55:53;6.33;;;3.90;;
10458;SDS011;5277;48.722;8.736;2023-04-27T01:58:19;7.67;;;4.00;;
10458;SDS011;5277;48.722;8.736;2023-04-27T02:00:45;8.50;;;4.03;;
10458;SDS011;5277;48.722;8.736;2023-04-27T02:03:10;5.10;;;4.23;;
10458;SDS011;5277;48.722;8.736;2023-04-27T02:05:36;6.00;;;3.73;;
10458;SDS011;5277;48.722;8.736;2023-04-27T02:08:02;6.90;;;4.57;;
10458;SDS011;5277;48.722;8.736;2023-04-27T02:10:27;5.03;;;3.80;;
10458;SDS011;5277;48.722;8.736;2023-04-27T02:12:53;5.77;;;4.03;;
10458;SDS011;5277;48.722;8.736;2023-04-27T02:15:19;6.00;;;3.93;;
10458;SDS011;5277;48.722;8.736;2023-04-27T02:17:44;9.63;;;3.93;;
10458;SDS011;5277;48.722;8.736;2023-04-27T02:20:10;11.20;;;4.80;;
10458;SDS011;5277;48.722;8.736;2023-04-27T02:22:39;6.20;;;4.30;;
10458;SDS011;5277;48.722;8.736;2023-04-27T02:25:07;6.67;;;4.00;;
10458;SDS011;5277;48.722;8.736;2023-04-27T03:18:07;4.73;;;3.50;;
10458;SDS011;5277;48.722;8.736;2023-04-27T03:20:32;4.87;;;3.87;;
10458;SDS011;5277;48.722;8.736;2023-04-27T03:22:58;6.07;;;3.70;;
10458;SDS011;5277;48.722;8.736;2023-04-27T03:25:23;4.80;;;3.60;;
10458;SDS011;5277;48.722;8.736;2023-04-27T03:27:49;8.73;;;3.53;;
10458;SDS011;5277;48.722;8.736;2023-04-27T03:30:15;7.97;;;3.87;;
10458;SDS011;5277;48.722;8.736;2023-04-27T03:32:53;5.97;;;3.80;;
10458;SDS011;5277;48.722;8.736;2023-04-27T03:35:39;4.80;;;3.97;;
10458;SDS011;5277;48.722;8.736;2023-04-27T03:38:44;5.90;;;3.70;;
10458;SDS011;5277;48.722;8.736;2023-04-27T03:41:12;4.00;;;3.60;;
10458;SDS011;5277;48.722;8.736;2023-04-27T03:43:43;4.70;;;3.93;;
10458;SDS011;5277;48.722;8.736;2023-04-27T03:46:11;5.77;;;3.97;;
10458;SDS011;5277;48.722;8.736;2023-04-27T03:48:51;7.53;;;4.20;;
10458;SDS011;5277;48.722;8.736;2023-04-27T03:51:17;5.03;;;3.60;;
10458;SDS011;5277;48.722;8.736;2023-04-27T03:53:48;5.00;;;3.70;;
10458;SDS011;5277;48.722;8.736;2023-04-27T03:56:21;7.17;;;4.40;;
10458;SDS011;5277;48.722;8.736;2023-04-27T03:59:17;9.57;;;3.73;;
10458;SDS011;5277;48.722;8.736;2023-04-27T04:01:42;9.33;;;3.90;;
10458;SDS011;5277;48.722;8.736;2023-04-27T04:04:19;4.50;;;3.20;;
10458;SDS011;5277;48.722;8.736;2023-04-27T04:06:47;6.23;;;3.73;;
10458;SDS011;5277;48.722;8.736;2023-04-27T04:09:15;5.57;;;3.80;;
10458;SDS011;5277;48.722;8.736;2023-04-27T04:11:52;8.57;;;3.77;;
10458;SDS011;5277;48.722;8.736;2023-04-27T04:14:21;8.73;;;5.13;;
10458;SDS011;5277;48.722;8.736;2023-04-27T04:16:46;9.00;;;4.60;;
10458;SDS011;5277;48.722;8.736;2023-04-27T04:19:17;8.50;;;4.20;;
10458;SDS011;5277;48.722;8.736;2023-04-27T04:21:58;10.53;;;6.30;;
10458;SDS011;5277;48.722;8.736;2023-04-27T04:24:37;7.93;;;5.30;;
10458;SDS011;5277;48.722;8.736;2023-04-27T04:27:24;5.73;;;4.33;;
10458;SDS011;5277;48.722;8.736;2023-04-27T04:30:10;8.40;;;4.17;;
10458;SDS011;5277;48.722;8.736;2023-04-27T04:32:47;5.57;;;3.67;;
10458;SDS011;5277;48.722;8.736;2023-04-27T04:36:06;5.60;;;3.60;;
10458;SDS011;5277;48.722;8.736;2023-04-27T04:39:05;7.83;;;3.47;;
10458;SDS011;5277;48.722;8.736;2023-04-27T04:41:53;6.10;;;3.53;;
10458;SDS011;5277;48.722;8.736;2023-04-27T04:49:58;6.60;;;4.43;;
10458;SDS011;5277;48.722;8.736;2023-04-27T04:52:52;12.93;;;5.33;;
10458;SDS011;5277;48.722;8.736;2023-04-27T04:55:21;9.03;;;6.13;;
10458;SDS011;5277;48.722;8.736;2023-04-27T04:57:50;8.97;;;5.80;;
10458;SDS011;5277;48.722;8.736;2023-04-27T05:00:25;13.70;;;6.03;;
10458;SDS011;5277;48.722;8.736;2023-04-27T05:03:14;7.30;;;5.20;;
10458;SDS011;5277;48.722;8.736;2023-04-27T05:08:59;7.83;;;4.00;;
10458;SDS011;5277;48.722;8.736;2023-04-27T05:14:53;7.33;;;3.87;;
10458;SDS011;5277;48.722;8.736;2023-04-27T05:17:31;6.23;;;4.00;;
10458;SDS011;5277;48.722;8.736;2023-04-27T05:20:13;5.83;;;3.90;;
10458;SDS011;5277;48.722;8.736;2023-04-27T05:25:28;6.77;;;3.60;;
10458;SDS011;5277;48.722;8.736;2023-04-27T05:28:25;6.50;;;3.50;;
10458;SDS011;5277;48.722;8.736;2023-04-27T05:30:57;12.40;;;4.10;;
10458;SDS011;5277;48.722;8.736;2023-04-27T05:37:03;8.93;;;4.00;;
10458;SDS011;5277;48.722;8.736;2023-04-27T05:39:40;6.13;;;3.40;;
10458;SDS011;5277;48.722;8.736;2023-04-27T05:44:58;11.13;;;3.50;;
10458;SDS011;5277;48.722;8.736;2023-04-27T05:47:34;5.47;;;3.80;;
10458;SDS011;5277;48.722;8.736;2023-04-27T05:50:02;9.57;;;4.43;;
10458;SDS011;5277;48.722;8.736;2023-04-27T05:52:37;8.93;;;5.03;;
10458;SDS011;5277;48.722;8.736;2023-04-27T05:55:34;8.33;;;4.37;;
10458;SDS011;5277;48.722;8.736;2023-04-27T05:58:39;8.20;;;4.47;;
10458;SDS011;5277;48.722;8.736;2023-04-27T06:01:19;7.33;;;4.07;;
10458;SDS011;5277;48.722;8.736;2023-04-27T06:04:25;6.97;;;3.97;;
10458;SDS011;5277;48.722;8.736;2023-04-27T06:07:34;7.77;;;4.00;;
10458;SDS011;5277;48.722;8.736;2023-04-27T06:10:11;3.93;;;3.50;;
10458;SDS011;5277;48.722;8.736;2023-04-27T06:13:11;5.55;;;3.72;;
10458;SDS011;5277;48.722;8.736;2023-04-27T06:16:05;6.37;;;3.53;;
10458;SDS011;5277;48.722;8.736;2023-04-27T06:21:32;3.92;;;3.13;;
10458;SDS011;5277;48.722;8.736;2023-04-27T06:27:41;9.73;;;3.47;;
10458;SDS011;5277;48.722;8.736;2023-04-27T06:30:15;8.10;;;3.58;;
10458;SDS011;5277;48.722;8.736;2023-04-27T06:32:55;4.47;;;3.15;;
10458;SDS011;5277;48.722;8.736;2023-04-27T06:35:21;8.20;;;3.35;;
10458;SDS011;5277;48.722;8.736;2023-04-27T06:37:47;5.68;;;3.17;;
10458;SDS011;5277;48.722;8.736;2023-04-27T06:40:25;4.38;;;3.03;;
10458;SDS011;5277;48.722;8.736;2023-04-27T06:43:01;7.13;;;3.30;;
10458;SDS011;5277;48.722;8.736;2023-04-27T06:45:35;5.88;;;3.22;;
10458;SDS011;5277;48.722;8.736;2023-04-27T06:48:32;7.63;;;3.35;;
10458;SDS011;5277;48.722;8.736;2023-04-27T06:51:12;6.78;;;4.18;;
10458;SDS011;5277;48.722;8.736;2023-04-27T06:53:41;5.78;;;3.90;;
10458;SDS011;5277;48.722;8.736;2023-04-27T06:56:10;6.90;;;3.60;;
10458;SDS011;5277;48.722;8.736;2023-04-27T06:58:39;4.07;;;2.92;;
10458;SDS011;5277;48.722;8.736;2023-04-27T07:01:29;6.45;;;3.30;;
10458;SDS011;5277;48.722;8.736;2023-04-27T07:16:48;5.40;;;3.33;;
10458;SDS011;5277;48.722;8.736;2023-04-27T07:19:13;5.43;;;2.70;;
10458;SDS011;5277;48.722;8.736;2023-04-27T07:21:42;7.32;;;3.20;;
10458;SDS011;5277;48.722;8.736;2023-04-27T07:24:17;8.50;;;3.33;;
10458;SDS011;5277;48.722;8.736;2023-04-27T07:26:43;4.32;;;2.65;;
10458;SDS011;5277;48.722;8.736;2023-04-27T07:29:11;6.65;;;2.95;;
10458;SDS011;5277;48.722;8.736;2023-04-27T07:31:38;5.35;;;2.50;;
10458;SDS011;5277;48.722;8.736;2023-04-27T07:34:04;5.13;;;3.00;;
10458;SDS011;5277;48.722;8.736;2023-04-27T07:36:44;5.20;;;2.80;;
10458;SDS011;5277;48.722;8.736;2023-04-27T07:39:24;6.88;;;2.60;;
10458;SDS011;5277;48.722;8.736;2023-04-27T07:42:01;8.55;;;2.67;;
10458;SDS011;5277;48.722;8.736;2023-04-27T07:44:42;9.38;;;3.42;;
10458;SDS011;5277;48.722;8.736;2023-04-27T07:47:24;6.93;;;2.72;;
10458;SDS011;5277;48.722;8.736;2023-04-27T07:49:53;7.00;;;2.83;;
10458;SDS011;5277;48.722;8.736;2023-04-27T07:52:31;5.68;;;2.80;;
10458;SDS011;5277;48.722;8.736;2023-04-27T07:54:56;8.10;;;2.67;;
10458;SDS011;5277;48.722;8.736;2023-04-27T07:57:25;6.47;;;2.63;;
10458;SDS011;5277;48.722;8.736;2023-04-27T08:00:18;3.95;;;2.35;;
10458;SDS011;5277;48.722;8.736;2023-04-27T08:02:52;6.70;;;3.00;;
10458;SDS011;5277;48.722;8.736;2023-04-27T08:05:31;6.20;;;3.28;;
10458;SDS011;5277;48.722;8.736;2023-04-27T08:07:59;4.28;;;2.20;;
10458;SDS011;5277;48.722;8.736;2023-04-27T08:10:30;6.05;;;2.50;;
10458;SDS011;5277;48.722;8.736;2023-04-27T08:13:19;3.92;;;2.30;;
10458;SDS011;5277;48.722;8.736;2023-04-27T08:15:51;3.63;;;2.20;;
10458;SDS011;5277;48.722;8.736;2023-04-27T08:18:31;4.43;;;2.00;;
10458;SDS011;5277;48.722;8.736;2023-04-27T08:20:59;6.53;;;2.40;;
10458;SDS011;5277;48.722;8.736;2023-04-27T08:23:28;7.25;;;2.22;;
10458;SDS011;5277;48.722;8.736;2023-04-27T08:25:55;6.88;;;2.60;;
10458;SDS011;5277;48.722;8.736;2023-04-27T08:28:21;3.35;;;1.92;;
10458;SDS011;5277;48.722;8.736;2023-04-27T08:30:50;5.97;;;2.20;;
10458;SDS011;5277;48.722;8.736;2023-04-27T08:33:15;4.93;;;2.55;;
10458;SDS011;5277;48.722;8.736;2023-04-27T08:35:41;5.13;;;2.45;;
10458;SDS011;5277;48.722;8.736;2023-04-27T08:38:07;4.85;;;2.50;;
10458;SDS011;5277;48.722;8.736;2023-04-27T08:40:32;5.57;;;2.35;;
10458;SDS011;5277;48.722;8.736;2023-04-27T08:43:00;5.45;;;2.38;;
10458;SDS011;5277;48.722;8.736;2023-04-27T08:45:32;9.02;;;2.60;;
10458;SDS011;5277;48.722;8.736;2023-04-27T08:47:57;6.10;;;2.45;;
10458;SDS011;5277;48.722;8.736;2023-04-27T08:50:23;4.97;;;2.28;;
10458;SDS011;5277;48.722;8.736;2023-04-27T08:52:49;3.90;;;2.25;;
10458;SDS011;5277;48.722;8.736;2023-04-27T08:55:16;5.80;;;2.65;;
10458;SDS011;5277;48.722;8.736;2023-04-27T08:57:57;3.47;;;2.10;;
10458;SDS011;5277;48.722;8.736;2023-04-27T09:00:24;7.53;;;2.33;;
10458;SDS011;5277;48.722;8.736;2023-04-27T09:02:50;6.03;;;2.17;;
10458;SDS011;5277;48.722;8.736;2023-04-27T09:05:20;5.05;;;2.75;;
10458;SDS011;5277;48.722;8.736;2023-04-27T09:08:02;4.88;;;2.15;;
10458;SDS011;5277;48.722;8.736;2023-04-27T09:10:50;3.60;;;2.05;;
10458;SDS011;5277;48.722;8.736;2023-04-27T09:13:17;5.13;;;2.42;;
10458;SDS011;5277;48.722;8.736;2023-04-27T09:15:43;5.53;;;2.13;;
10458;SDS011;5277;48.722;8.736;2023-04-27T09:18:17;4.75;;;2.20;;
10458;SDS011;5277;48.722;8.736;2023-04-27T09:20:45;3.50;;;2.05;;
10458;SDS011;5277;48.722;8.736;2023-04-27T09:25:55;4.28;;;2.10;;
10458;SDS011;5277;48.722;8.736;2023-04-27T09:28:21;6.22;;;2.10;;
10458;SDS011;5277;48.722;8.736;2023-04-27T09:30:53;4.05;;;2.20;;
10458;SDS011;5277;48.722;8.736;2023-04-27T09:33:24;4.50;;;1.98;;
10458;SDS011;5277;48.722;8.736;2023-04-27T09:35:51;5.65;;;2.47;;
10458;SDS011;5277;48.722;8.736;2023-04-27T09:38:18;4.30;;;2.17;;
10458;SDS011;5277;48.722;8.736;2023-04-27T09:40:46;3.88;;;2.00;;
10458;SDS011;5277;48.722;8.736;2023-04-27T09:43:13;4.43;;;2.22;;
10458;SDS011;5277;48.722;8.736;2023-04-27T09:45:39;5.22;;;2.10;;
10458;SDS011;5277;48.722;8.736;2023-04-27T09:48:05;8.60;;;1.70;;
10458;SDS011;5277;48.722;8.736;2023-04-27T09:50:36;4.13;;;1.70;;
10458;SDS011;5277;48.722;8.736;2023-04-27T09:53:04;4.40;;;2.08;;
10458;SDS011;5277;48.722;8.736;2023-04-27T09:55:35;3.72;;;2.00;;
10458;SDS011;5277;48.722;8.736;2023-04-27T10:10:18;4.25;;;2.47;;
10458;SDS011;5277;48.722;8.736;2023-04-27T10:12:56;4.22;;;1.88;;
10458;SDS011;5277;48.722;8.736;2023-04-27T10:15:31;3.10;;;1.83;;
10458;SDS011;5277;48.722;8.736;2023-04-27T10:18:02;6.88;;;2.28;;
10458;SDS011;5277;48.722;8.736;2023-04-27T10:20:30;5.10;;;1.88;;
10458;SDS011;5277;48.722;8.736;2023-04-27T10:23:00;3.03;;;1.80;;
10458;SDS011;5277;48.722;8.736;2023-04-27T10:25:26;3.55;;;1.65;;
10458;SDS011;5277;48.722;8.736;2023-04-27T10:27:59;3.60;;;1.70;;
10458;SDS011;5277;48.722;8.736;2023-04-27T10:30:30;3.40;;;1.80;;
10458;SDS011;5277;48.722;8.736;2023-04-27T10:32:58;5.13;;;1.95;;
10458;SDS011;5277;48.722;8.736;2023-04-27T10:38:06;4.28;;;1.75;;
10458;SDS011;5277;48.722;8.736;2023-04-27T10:40:40;4.50;;;1.95;;
10458;SDS011;5277;48.722;8.736;2023-04-27T10:43:13;5.60;;;1.90;;
10458;SDS011;5277;48.722;8.736;2023-04-27T10:45:40;5.38;;;1.80;;
10458;SDS011;5277;48.722;8.736;2023-04-27T10:48:07;3.45;;;1.88;;
10458;SDS011;5277;48.722;8.736;2023-04-27T10:50:33;4.18;;;1.92;;
10458;SDS011;5277;48.722;8.736;2023-04-27T10:53:04;3.10;;;1.75;;
10458;SDS011;5277;48.722;8.736;2023-04-27T10:55:31;2.80;;;1.63;;
10458;SDS011;5277;48.722;8.736;2023-04-27T10:57:58;3.35;;;1.90;;
10458;SDS011;5277;48.722;8.736;2023-04-27T11:00:29;2.88;;;1.60;;
10458;SDS011;5277;48.722;8.736;2023-04-27T11:02:57;3.42;;;1.77;;
10458;SDS011;5277;48.722;8.736;2023-04-27T11:05:34;6.57;;;1.50;;
10458;SDS011;5277;48.722;8.736;2023-04-27T11:08:09;4.25;;;1.70;;
10458;SDS011;5277;48.722;8.736;2023-04-27T11:10:37;4.88;;;1.90;;
10458;SDS011;5277;48.722;8.736;2023-04-27T11:15:58;6.07;;;1.77;;
10458;SDS011;5277;48.722;8.736;2023-04-27T11:18:24;3.08;;;1.42;;
10458;SDS011;5277;48.722;8.736;2023-04-27T11:21:08;4.63;;;1.48;;
10458;SDS011;5277;48.722;8.736;2023-04-27T11:23:35;5.30;;;1.60;;
10458;SDS011;5277;48.722;8.736;2023-04-27T11:29:00;5.35;;;1.80;;
10458;SDS011;5277;48.722;8.736;2023-04-27T11:34:08;4.60;;;1.77;;
10458;SDS011;5277;48.722;8.736;2023-04-27T11:36:40;10.25;;;3.03;;
10458;SDS011;5277;48.722;8.736;2023-04-27T11:39:05;6.53;;;1.92;;
10458;SDS011;5277;48.722;8.736;2023-04-27T11:41:32;3.25;;;2.10;;
10458;SDS011;5277;48.722;8.736;2023-04-27T11:44:05;3.92;;;1.85;;
10458;SDS011;5277;48.722;8.736;2023-04-27T11:46:35;5.47;;;1.40;;
10458;SDS011;5277;48.722;8.736;2023-04-27T11:49:02;1.65;;;1.50;;
10458;SDS011;5277;48.722;8.736;2023-04-27T11:51:29;5.40;;;2.17;;
10458;SDS011;5277;48.722;8.736;2023-04-27T11:54:00;3.30;;;1.55;;
10458;SDS011;5277;48.722;8.736;2023-04-27T11:56:33;4.90;;;1.70;;
10458;SDS011;5277;48.722;8.736;2023-04-27T11:59:25;3.15;;;1.42;;
10458;SDS011;5277;48.722;8.736;2023-04-27T12:01:51;6.47;;;1.60;;
10458;SDS011;5277;48.722;8.736;2023-04-27T12:04:17;3.63;;;1.80;;
10458;SDS011;5277;48.722;8.736;2023-04-27T12:06:43;3.65;;;1.80;;
10458;SDS011;5277;48.722;8.736;2023-04-27T12:09:08;5.47;;;1.67;;
10458;SDS011;5277;48.722;8.736;2023-04-27T12:11:34;6.25;;;1.88;;
10458;SDS011;5277;48.722;8.736;2023-04-27T12:14:00;3.60;;;1.80;;
10458;SDS011;5277;48.722;8.736;2023-04-27T12:16:26;4.35;;;2.00;;
10458;SDS011;5277;48.722;8.736;2023-04-27T12:18:52;5.40;;;2.10;;
10458;SDS011;5277;48.722;8.736;2023-04-27T12:21:17;3.63;;;1.65;;
10458;SDS011;5277;48.722;8.736;2023-04-27T12:23:43;3.67;;;1.70;;
10458;SDS011;5277;48.722;8.736;2023-04-27T12:26:09;5.70;;;1.77;;
10458;SDS011;5277;48.722;8.736;2023-04-27T12:28:35;3.97;;;2.25;;
10458;SDS011;5277;48.722;8.736;2023-04-27T12:31:02;3.65;;;1.50;;
10458;SDS011;5277;48.722;8.736;2023-04-27T12:33:28;4.43;;;1.60;;
10458;SDS011;5277;48.722;8.736;2023-04-27T12:35:54;6.35;;;2.08;;
10458;SDS011;5277;48.722;8.736;2023-04-27T12:38:20;4.30;;;2.90;;
10458;SDS011;5277;48.722;8.736;2023-04-27T12:40:46;3.15;;;1.90;;
10458;SDS011;5277;48.722;8.736;2023-04-27T12:43:12;2.13;;;1.40;;
10458;SDS011;5277;48.722;8.736;2023-04-27T12:45:38;3.28;;;1.73;;
10458;SDS011;5277;48.722;8.736;2023-04-27T12:48:04;5.05;;;2.28;;
10458;SDS011;5277;48.722;8.736;2023-04-27T12:50:30;5.68;;;2.17;;
10458;SDS011;5277;48.722;8.736;2023-04-27T12:52:56;3.33;;;1.90;;
10458;SDS011;5277;48.722;8.736;2023-04-27T12:55:21;3.90;;;1.67;;
10458;SDS011;5277;48.722;8.736;2023-04-27T12:57:47;3.83;;;2.00;;
10458;SDS011;5277;48.722;8.736;2023-04-27T13:00:13;6.18;;;1.85;;
10458;SDS011;5277;48.722;8.736;2023-04-27T13:02:39;7.47;;;2.15;;
10458;SDS011;5277;48.722;8.736;2023-04-27T13:05:08;3.47;;;2.10;;
10458;SDS011;5277;48.722;8.736;2023-04-27T13:07:35;3.78;;;1.95;;
10458;SDS011;5277;48.722;8.736;2023-04-27T13:10:00;3.40;;;1.88;;
10458;SDS011;5277;48.722;8.736;2023-04-27T13:12:27;6.75;;;1.90;;
10458;SDS011;5277;48.722;8.736;2023-04-27T13:14:53;6.60;;;1.95;;
10458;SDS011;5277;48.722;8.736;2023-04-27T13:17:18;6.50;;;1.80;;
10458;SDS011;5277;48.722;8.736;2023-04-27T13:19:44;5.40;;;1.98;;
10458;SDS011;5277;48.722;8.736;2023-04-27T13:22:09;3.25;;;1.73;;
10458;SDS011;5277;48.722;8.736;2023-04-27T13:24:35;5.72;;;1.90;;
10458;SDS011;5277;48.722;8.736;2023-04-27T13:27:01;2.30;;;1.50;;
10458;SDS011;5277;48.722;8.736;2023-04-27T13:29:27;3.95;;;1.80;;
10458;SDS011;5277;48.722;8.736;2023-04-27T13:31:53;4.50;;;1.80;;
10458;SDS011;5277;48.722;8.736;2023-04-27T13:34:18;3.45;;;1.58;;
10458;SDS011;5277;48.722;8.736;2023-04-27T13:36:44;4.65;;;1.83;;
10458;SDS011;5277;48.722;8.736;2023-04-27T13:39:10;2.95;;;1.50;;
10458;SDS011;5277;48.722;8.736;2023-04-27T13:41:35;5.53;;;1.70;;
10458;SDS011;5277;48.722;8.736;2023-04-27T13:44:01;4.43;;;1.60;;
10458;SDS011;5277;48.722;8.736;2023-04-27T13:46:27;2.80;;;1.40;;
10458;SDS011;5277;48.722;8.736;2023-04-27T13:48:52;2.38;;;1.35;;
10458;SDS011;5277;48.722;8.736;2023-04-27T13:51:18;3.22;;;1.60;;
10458;SDS011;5277;48.722;8.736;2023-04-27T13:53:44;2.13;;;1.52;;
10458;SDS011;5277;48.722;8.736;2023-04-27T13:56:10;3.10;;;1.48;;
10458;SDS011;5277;48.722;8.736;2023-04-27T13:58:36;3.92;;;1.60;;
10458;SDS011;5277;48.722;8.736;2023-04-27T14:01:01;2.67;;;1.38;;
10458;SDS011;5277;48.722;8.736;2023-04-27T14:03:27;4.32;;;1.52;;
10458;SDS011;5277;48.722;8.736;2023-04-27T14:05:53;4.10;;;1.83;;
10458;SDS011;5277;48.722;8.736;2023-04-27T14:08:20;4.13;;;1.42;;
10458;SDS011;5277;48.722;8.736;2023-04-27T14:10:46;6.63;;;1.80;;
10458;SDS011;5277;48.722;8.736;2023-04-27T14:13:12;3.90;;;1.60;;
10458;SDS011;5277;48.722;8.736;2023-04-27T14:15:38;5.10;;;1.67;;
10458;SDS011;5277;48.722;8.736;2023-04-27T14:18:04;4.05;;;1.60;;
10458;SDS011;5277;48.722;8.736;2023-04-27T14:20:31;6.47;;;1.40;;
10458;SDS011;5277;48.722;8.736;2023-04-27T14:22:58;2.63;;;1.58;;
10458;SDS011;5277;48.722;8.736;2023-04-27T14:25:23;4.78;;;1.40;;
10458;SDS011;5277;48.722;8.736;2023-04-27T14:27:49;3.90;;;1.50;;
10458;SDS011;5277;48.722;8.736;2023-04-27T14:30:15;4.80;;;1.50;;
10458;SDS011;5277;48.722;8.736;2023-04-27T14:32:40;4.20;;;1.85;;
10458;SDS011;5277;48.722;8.736;2023-04-27T14:35:06;2.55;;;1.42;;
10458;SDS011;5277;48.722;8.736;2023-04-27T14:37:32;2.33;;;1.30;;
10458;SDS011;5277;48.722;8.736;2023-04-27T14:39:58;3.95;;;1.60;;
10458;SDS011;5277;48.722;8.736;2023-04-27T14:42:24;7.22;;;1.58;;
10458;SDS011;5277;48.722;8.736;2023-04-27T14:44:50;2.00;;;1.23;;
10458;SDS011;5277;48.722;8.736;2023-04-27T14:47:16;2.13;;;1.60;;
10458;SDS011;5277;48.722;8.736;2023-04-27T14:49:42;4.35;;;1.50;;
10458;SDS011;5277;48.722;8.736;2023-04-27T14:52:08;4.13;;;1.30;;
10458;SDS011;5277;48.722;8.736;2023-04-27T14:54:33;3.90;;;1.70;;
10458;SDS011;5277;48.722;8.736;2023-04-27T14:57:01;4.45;;;1.88;;
10458;SDS011;5277;48.722;8.736;2023-04-27T14:59:27;5.80;;;1.60;;
10458;SDS011;5277;48.722;8.736;2023-04-27T15:01:53;2.45;;;1.38;;
10458;SDS011;5277;48.722;8.736;2023-04-27T15:04:18;5.72;;;1.90;;
10458;SDS011;5277;48.722;8.736;2023-04-27T15:06:44;7.13;;;1.48;;
10458;SDS011;5277;48.722;8.736;2023-04-27T15:09:10;6.93;;;1.77;;
10458;SDS011;5277;48.722;8.736;2023-04-27T15:11:37;4.05;;;1.60;;
10458;SDS011;5277;48.722;8.736;2023-04-27T15:14:03;3.45;;;1.45;;
10458;SDS011;5277;48.722;8.736;2023-04-27T15:16:28;6.28;;;1.77;;
10458;SDS011;5277;48.722;8.736;2023-04-27T15:18:54;1.85;;;1.30;;
10458;SDS011;5277;48.722;8.736;2023-04-27T15:21:20;2.47;;;1.40;;
10458;SDS011;5277;48.722;8.736;2023-04-27T15:23:46;2.95;;;1.50;;
10458;SDS011;5277;48.722;8.736;2023-04-27T15:26:11;3.00;;;1.30;;
10458;SDS011;5277;48.722;8.736;2023-04-27T15:28:37;5.15;;;1.38;;
10458;SDS011;5277;48.722;8.736;2023-04-27T15:31:03;3.47;;;1.23;;
10458;SDS011;5277;48.722;8.736;2023-04-27T15:33:28;2.97;;;1.40;;
10458;SDS011;5277;48.722;8.736;2023-04-27T15:35:54;2.97;;;1.60;;
10458;SDS011;5277;48.722;8.736;2023-04-27T15:38:20;3.85;;;1.60;;
10458;SDS011;5277;48.722;8.736;2023-04-27T15:40:45;4.53;;;1.55;;
10458;SDS011;5277;48.722;8.736;2023-04-27T15:43:11;4.78;;;1.42;;
10458;SDS011;5277;48.722;8.736;2023-04-27T15:45:38;2.60;;;1.48;;
10458;SDS011;5277;48.722;8.736;2023-04-27T15:48:05;3.90;;;1.40;;
10458;SDS011;5277;48.722;8.736;2023-04-27T15:50:31;2.78;;;1.67;;
10458;SDS011;5277;48.722;8.736;2023-04-27T15:52:57;1.92;;;1.33;;
10458;SDS011;5277;48.722;8.736;2023-04-27T15:55:22;4.18;;;1.58;;
10458;SDS011;5277;48.722;8.736;2023-04-27T15:57:48;6.10;;;1.60;;
10458;SDS011;5277;48.722;8.736;2023-04-27T16:00:14;7.03;;;1.80;;
10458;SDS011;5277;48.722;8.736;2023-04-27T16:02:41;3.78;;;1.70;;
10458;SDS011;5277;48.722;8.736;2023-04-27T16:05:08;5.97;;;1.50;;
10458;SDS011;5277;48.722;8.736;2023-04-27T16:07:34;4.97;;;1.70;;
10458;SDS011;5277;48.722;8.736;2023-04-27T16:10:01;3.03;;;1.30;;
10458;SDS011;5277;48.722;8.736;2023-04-27T16:12:27;5.03;;;1.95;;
10458;SDS011;5277;48.722;8.736;2023-04-27T16:14:53;3.90;;;1.42;;
10458;SDS011;5277;48.722;8.736;2023-04-27T16:17:23;5.93;;;1.60;;
10458;SDS011;5277;48.722;8.736;2023-04-27T16:19:50;7.57;;;1.65;;
10458;SDS011;5277;48.722;8.736;2023-04-27T16:22:16;3.20;;;1.63;;
10458;SDS011;5277;48.722;8.736;2023-04-27T16:24:42;2.33;;;1.40;;
10458;SDS011;5277;48.722;8.736;2023-04-27T16:27:07;4.38;;;1.52;;
10458;SDS011;5277;48.722;8.736;2023-04-27T16:29:33;2.20;;;1.58;;
10458;SDS011;5277;48.722;8.736;2023-04-27T16:31:59;2.70;;;1.23;;
10458;SDS011;5277;48.722;8.736;2023-04-27T16:34:25;2.50;;;1.40;;
10458;SDS011;5277;48.722;8.736;2023-04-27T16:36:51;5.32;;;1.80;;
10458;SDS011;5277;48.722;8.736;2023-04-27T16:39:17;6.07;;;1.80;;
10458;SDS011;5277;48.722;8.736;2023-04-27T16:41:43;7.82;;;1.63;;
10458;SDS011;5277;48.722;8.736;2023-04-27T16:44:09;3.92;;;1.30;;
10458;SDS011;5277;48.722;8.736;2023-04-27T16:46:39;1.63;;;1.33;;
10458;SDS011;5277;48.722;8.736;2023-04-27T16:49:04;4.95;;;1.48;;
10458;SDS011;5277;48.722;8.736;2023-04-27T16:51:30;4.68;;;1.50;;
10458;SDS011;5277;48.722;8.736;2023-04-27T16:53:57;3.25;;;1.30;;
10458;SDS011;5277;48.722;8.736;2023-04-27T16:56:26;4.63;;;1.50;;
10458;SDS011;5277;48.722;8.736;2023-04-27T16:58:53;3.40;;;1.90;;
10458;SDS011;5277;48.722;8.736;2023-04-27T17:01:18;5.20;;;1.52;;
10458;SDS011;5277;48.722;8.736;2023-04-27T17:03:45;3.92;;;1.50;;
10458;SDS011;5277;48.722;8.736;2023-04-27T17:06:10;3.95;;;1.45;;
10458;SDS011;5277;48.722;8.736;2023-04-27T17:08:36;4.78;;;1.40;;
10458;SDS011;5277;48.722;8.736;2023-04-27T17:11:06;3.53;;;1.50;;
10458;SDS011;5277;48.722;8.736;2023-04-27T17:13:32;3.60;;;1.35;;